createdAt,value
2023-05-21T00:00:18.702Z,994.92
2023-05-21T00:00:38.967Z,994.92
2023-05-21T00:01:06.630Z,994.92
2023-05-21T00:01:37.425Z,994.92
2023-05-21T00:02:09.456Z,995.02
2023-05-21T00:02:37.028Z,994.82
2023-05-21T00:02:57.975Z,994.82
2023-05-21T00:03:29.512Z,994.82
2023-05-21T00:03:46.264Z,994.72
2023-05-21T00:04:17.591Z,994.72
2023-05-21T00:04:39.193Z,994.92
2023-05-21T00:05:07.104Z,994.92
2023-05-21T00:05:37.835Z,994.92
2023-05-21T00:06:09.402Z,994.82
2023-05-21T00:06:37.475Z,994.82
2023-05-21T00:06:57.503Z,994.82
2023-05-21T00:07:29.612Z,994.82
2023-05-21T00:07:46.370Z,995.02
2023-05-21T00:08:17.531Z,995.02
2023-05-21T00:08:39.000Z,994.72
2023-05-21T00:09:06.857Z,994.72
2023-05-21T00:09:37.550Z,994.72
2023-05-21T00:10:10.051Z,995.02
2023-05-21T00:10:25.981Z,995.02
2023-05-21T00:10:57.824Z,994.92
2023-05-21T00:11:29.447Z,994.92
2023-05-21T00:11:46.148Z,995.02
2023-05-21T00:12:17.788Z,995.02
2023-05-21T00:12:39.054Z,994.72
2023-05-21T00:13:05.962Z,994.72
2023-05-21T00:13:37.466Z,994.72
2023-05-21T00:14:09.425Z,995.02
2023-05-21T00:14:37.190Z,995.12
2023-05-21T00:14:57.550Z,995.12
2023-05-21T00:15:30.347Z,995.12
2023-05-21T00:15:46.148Z,994.82
2023-05-21T00:16:17.705Z,994.82
2023-05-21T00:16:39.194Z,995.02
2023-05-21T00:17:05.967Z,995.02
2023-05-21T00:17:37.549Z,995.02
2023-05-21T00:18:09.594Z,995.02
2023-05-21T00:18:26.035Z,995.02
2023-05-21T00:18:57.679Z,994.92
2023-05-21T00:19:29.300Z,994.92
2023-05-21T00:19:45.939Z,994.72
2023-05-21T00:20:17.985Z,994.72
2023-05-21T00:20:39.011Z,994.92
2023-05-21T00:21:05.941Z,994.92
2023-05-21T00:21:37.473Z,994.92
2023-05-21T00:22:09.425Z,995.02
2023-05-21T00:22:37.227Z,994.92
2023-05-21T00:22:57.540Z,994.92
2023-05-21T00:23:29.243Z,994.92
2023-05-21T00:23:46.311Z,994.72
2023-05-21T00:24:17.668Z,994.72
2023-05-21T00:24:38.939Z,994.72
2023-05-21T00:25:07.043Z,994.72
2023-05-21T00:25:37.617Z,994.72
2023-05-21T00:26:09.330Z,994.82
2023-05-21T00:26:37.101Z,994.72
2023-05-21T00:26:58.418Z,994.72
2023-05-21T00:27:29.431Z,994.72
2023-05-21T00:27:45.924Z,994.82
2023-05-21T00:28:17.422Z,994.82
2023-05-21T00:28:39.073Z,994.72
2023-05-21T00:29:05.912Z,994.72
2023-05-21T00:29:37.450Z,994.72
2023-05-21T00:30:10.303Z,994.82
2023-05-21T00:30:37.033Z,994.72
2023-05-21T00:30:58.321Z,994.72
2023-05-21T00:31:29.316Z,994.72
2023-05-21T00:31:46.091Z,994.82
2023-05-21T00:32:17.540Z,994.82
2023-05-21T00:32:39.101Z,995.02
2023-05-21T00:33:05.950Z,995.02
2023-05-21T00:33:37.461Z,995.02
2023-05-21T00:34:09.733Z,994.92
2023-05-21T00:34:37.098Z,995.02
2023-05-21T00:34:57.516Z,995.02
2023-05-21T00:35:29.661Z,995.02
2023-05-21T00:35:45.979Z,994.82
2023-05-21T00:36:18.685Z,994.82
2023-05-21T00:36:39.775Z,994.82
2023-05-21T00:37:06.300Z,994.82
2023-05-21T00:37:37.703Z,994.82
2023-05-21T00:38:09.490Z,995.02
2023-05-21T00:38:37.128Z,995.02
2023-05-21T00:38:57.493Z,995.02
2023-05-21T00:39:29.302Z,995.02
2023-05-21T00:39:46.026Z,994.92
2023-05-21T00:40:17.961Z,994.92
2023-05-21T00:40:39.124Z,994.92
2023-05-21T00:41:06.159Z,994.92
2023-05-21T00:41:37.541Z,994.92
2023-05-21T00:42:09.435Z,995.02
2023-05-21T00:42:37.006Z,994.92
2023-05-21T00:42:57.488Z,994.92
2023-05-21T00:43:29.307Z,994.92
2023-05-21T00:43:46.079Z,994.72
2023-05-21T00:44:17.548Z,994.72
2023-05-21T00:44:38.991Z,994.82
2023-05-21T00:45:08.043Z,994.82
2023-05-21T00:45:38.002Z,994.82
2023-05-21T00:46:09.595Z,995.02
2023-05-21T00:46:37.319Z,994.82
2023-05-21T00:46:57.547Z,994.82
2023-05-21T00:47:29.394Z,994.82
2023-05-21T00:47:46.108Z,994.82
2023-05-21T00:48:17.665Z,994.82
2023-05-21T00:48:38.990Z,994.61
2023-05-21T00:49:05.977Z,994.61
2023-05-21T00:49:37.519Z,994.61
2023-05-21T00:50:10.194Z,994.82
2023-05-21T00:50:37.349Z,994.72
2023-05-21T00:50:57.953Z,994.72
2023-05-21T00:51:29.354Z,994.72
2023-05-21T00:51:45.992Z,994.72
2023-05-21T00:52:17.545Z,994.72
2023-05-21T00:52:39.025Z,994.72
2023-05-21T00:53:06.276Z,994.72
2023-05-21T00:53:37.418Z,994.72
2023-05-21T00:54:09.478Z,994.82
2023-05-21T00:54:37.280Z,994.82
2023-05-21T00:54:57.718Z,994.82
2023-05-21T00:55:29.681Z,994.82
2023-05-21T00:55:45.997Z,994.72
2023-05-21T00:56:17.624Z,994.72
2023-05-21T00:56:39.028Z,994.92
2023-05-21T00:57:06.060Z,994.92
2023-05-21T00:57:37.712Z,994.92
2023-05-21T00:58:09.549Z,994.61
2023-05-21T00:58:37.098Z,994.92
2023-05-21T00:58:57.558Z,994.92
2023-05-21T00:59:29.332Z,994.92
2023-05-21T00:59:46.071Z,994.72
2023-05-21T01:00:18.669Z,994.72
2023-05-21T01:00:39.061Z,994.72
2023-05-21T01:01:07.055Z,994.72
2023-05-21T01:01:37.634Z,994.72
2023-05-21T01:02:09.458Z,994.82
2023-05-21T01:02:37.540Z,994.61
2023-05-21T01:02:57.442Z,994.61
2023-05-21T01:03:29.318Z,994.61
2023-05-21T01:03:46.064Z,994.72
2023-05-21T01:04:17.697Z,994.72
2023-05-21T01:04:38.911Z,994.51
2023-05-21T01:05:07.117Z,994.51
2023-05-21T01:05:37.829Z,994.51
2023-05-21T01:06:09.449Z,994.82
2023-05-21T01:06:37.196Z,994.61
2023-05-21T01:06:57.526Z,994.61
2023-05-21T01:07:29.376Z,994.61
2023-05-21T01:07:45.992Z,994.82
2023-05-21T01:08:17.930Z,994.82
2023-05-21T01:08:39.056Z,994.72
2023-05-21T01:09:06.115Z,994.72
2023-05-21T01:09:37.531Z,994.72
2023-05-21T01:10:10.096Z,994.72
2023-05-21T01:10:37.144Z,994.61
2023-05-21T01:10:57.953Z,994.61
2023-05-21T01:11:29.347Z,994.61
2023-05-21T01:11:46.080Z,994.61
2023-05-21T01:12:17.616Z,994.61
2023-05-21T01:12:39.047Z,994.72
2023-05-21T01:13:06.106Z,994.72
2023-05-21T01:13:37.439Z,994.72
2023-05-21T01:14:09.420Z,994.92
2023-05-21T01:14:37.136Z,994.72
2023-05-21T01:14:57.499Z,994.72
2023-05-21T01:15:30.373Z,994.72
2023-05-21T01:15:46.423Z,994.61
2023-05-21T01:16:17.670Z,994.61
2023-05-21T01:16:39.075Z,994.31
2023-05-21T01:17:06.151Z,994.31
2023-05-21T01:17:37.613Z,994.31
2023-05-21T01:18:09.359Z,994.61
2023-05-21T01:18:37.437Z,994.41
2023-05-21T01:18:57.589Z,994.41
2023-05-21T01:19:29.423Z,994.41
2023-05-21T01:19:46.068Z,994.72
2023-05-21T01:20:17.992Z,994.72
2023-05-21T01:20:39.078Z,994.51
2023-05-21T01:21:06.323Z,994.51
2023-05-21T01:21:37.501Z,994.51
2023-05-21T01:22:09.710Z,994.41
2023-05-21T01:22:37.202Z,994.61
2023-05-21T01:22:57.484Z,994.61
2023-05-21T01:23:29.347Z,994.61
2023-05-21T01:23:45.936Z,994.51
2023-05-21T01:24:17.525Z,994.51
2023-05-21T01:24:38.910Z,994.51
2023-05-21T01:25:07.037Z,994.51
2023-05-21T01:25:37.957Z,994.51
2023-05-21T01:26:09.787Z,994.61
2023-05-21T01:26:37.166Z,994.72
2023-05-21T01:26:57.527Z,994.72
2023-05-21T01:27:29.517Z,994.72
2023-05-21T01:27:47.214Z,994.41
2023-05-21T01:28:17.477Z,994.41
2023-05-21T01:28:39.024Z,994.51
2023-05-21T01:29:06.274Z,994.51
2023-05-21T01:29:37.544Z,994.51
2023-05-21T01:30:10.381Z,994.41
2023-05-21T01:30:37.241Z,994.61
2023-05-21T01:30:57.956Z,994.61
2023-05-21T01:31:29.388Z,994.61
2023-05-21T01:31:45.909Z,994.51
2023-05-21T01:32:17.500Z,994.51
2023-05-21T01:32:39.072Z,994.41
2023-05-21T01:33:06.639Z,994.41
2023-05-21T01:33:37.579Z,994.41
2023-05-21T01:34:09.553Z,994.61
2023-05-21T01:34:37.159Z,994.61
2023-05-21T01:34:57.665Z,994.61
2023-05-21T01:35:29.746Z,994.61
2023-05-21T01:35:45.921Z,994.61
2023-05-21T01:36:17.579Z,994.61
2023-05-21T01:36:38.916Z,994.41
2023-05-21T01:37:06.152Z,994.41
2023-05-21T01:37:37.631Z,994.41
2023-05-21T01:38:09.483Z,994.41
2023-05-21T01:38:37.334Z,994.51
2023-05-21T01:38:57.635Z,994.51
2023-05-21T01:39:29.676Z,994.51
2023-05-21T01:39:46.040Z,994.61
2023-05-21T01:40:17.945Z,994.61
2023-05-21T01:40:39.101Z,994.31
2023-05-21T01:41:06.065Z,994.31
2023-05-21T01:41:37.545Z,994.31
2023-05-21T01:42:09.410Z,994.51
2023-05-21T01:42:37.135Z,994.41
2023-05-21T01:42:57.564Z,994.41
2023-05-21T01:43:29.405Z,994.41
2023-05-21T01:43:45.979Z,994.51
2023-05-21T01:44:17.446Z,994.51
2023-05-21T01:44:38.990Z,994.41
2023-05-21T01:45:07.773Z,994.41
2023-05-21T01:45:37.600Z,994.41
2023-05-21T01:46:09.641Z,994.31
2023-05-21T01:46:25.953Z,994.31
2023-05-21T01:46:57.872Z,994.31
2023-05-21T01:47:29.328Z,994.31
2023-05-21T01:47:46.048Z,994.51
2023-05-21T01:48:17.597Z,994.51
2023-05-21T01:48:38.944Z,994.51
2023-05-21T01:49:06.061Z,994.51
2023-05-21T01:49:37.541Z,994.51
2023-05-21T01:50:09.830Z,994.61
2023-05-21T01:50:37.180Z,994.21
2023-05-21T01:50:58.006Z,994.21
2023-05-21T01:51:29.359Z,994.21
2023-05-21T01:51:45.881Z,994.61
2023-05-21T01:52:17.450Z,994.61
2023-05-21T01:52:38.999Z,994.61
2023-05-21T01:53:06.289Z,994.61
2023-05-21T01:53:37.632Z,994.61
2023-05-21T01:54:09.584Z,994.41
2023-05-21T01:54:37.650Z,994.61
2023-05-21T01:54:57.750Z,994.61
2023-05-21T01:55:29.806Z,994.61
2023-05-21T01:55:46.115Z,994.51
2023-05-21T01:56:17.575Z,994.51
2023-05-21T01:56:39.386Z,994.61
2023-05-21T01:57:06.397Z,994.61
2023-05-21T01:57:38.041Z,994.61
2023-05-21T01:58:09.390Z,994.72
2023-05-21T01:58:37.464Z,994.61
2023-05-21T01:58:57.655Z,994.61
2023-05-21T01:59:29.503Z,994.61
2023-05-21T01:59:45.975Z,994.41
2023-05-21T02:00:18.495Z,994.41
2023-05-21T02:00:39.752Z,994.31
2023-05-21T02:01:06.688Z,994.31
2023-05-21T02:01:37.534Z,994.31
2023-05-21T02:02:09.527Z,994.61
2023-05-21T02:02:37.332Z,994.51
2023-05-21T02:02:57.626Z,994.51
2023-05-21T02:03:29.584Z,994.51
2023-05-21T02:03:46.110Z,994.31
2023-05-21T02:04:17.541Z,994.31
2023-05-21T02:04:39.148Z,994.31
2023-05-21T02:05:07.148Z,994.31
2023-05-21T02:05:37.910Z,994.31
2023-05-21T02:06:09.397Z,994.31
2023-05-21T02:06:37.234Z,994.51
2023-05-21T02:06:57.766Z,994.51
2023-05-21T02:07:29.336Z,994.51
2023-05-21T02:07:46.276Z,994.31
2023-05-21T02:08:17.507Z,994.31
2023-05-21T02:08:38.978Z,994.21
2023-05-21T02:09:06.353Z,994.21
2023-05-21T02:09:37.525Z,994.21
2023-05-21T02:10:09.994Z,994.31
2023-05-21T02:10:37.254Z,994.41
2023-05-21T02:10:57.997Z,994.41
2023-05-21T02:11:29.395Z,994.41
2023-05-21T02:11:46.360Z,994.31
2023-05-21T02:12:17.509Z,994.31
2023-05-21T02:12:39.149Z,994.41
2023-05-21T02:13:06.327Z,994.41
2023-05-21T02:13:37.627Z,994.41
2023-05-21T02:14:09.538Z,994.51
2023-05-21T02:14:25.929Z,994.51
2023-05-21T02:14:57.586Z,994.31
2023-05-21T02:15:30.392Z,994.31
2023-05-21T02:15:46.516Z,994.51
2023-05-21T02:16:17.686Z,994.51
2023-05-21T02:16:39.038Z,994.31
2023-05-21T02:17:06.284Z,994.31
2023-05-21T02:17:37.879Z,994.31
2023-05-21T02:18:09.736Z,994.41
2023-05-21T02:18:37.151Z,994.61
2023-05-21T02:18:58.476Z,994.61
2023-05-21T02:19:29.574Z,994.61
2023-05-21T02:19:45.924Z,994.31
2023-05-21T02:20:18.144Z,994.31
2023-05-21T02:20:38.934Z,994.31
2023-05-21T02:21:06.149Z,994.31
2023-05-21T02:21:37.501Z,994.31
2023-05-21T02:22:09.402Z,994.31
2023-05-21T02:22:37.279Z,994.31
2023-05-21T02:22:57.527Z,994.31
2023-05-21T02:23:29.307Z,994.31
2023-05-21T02:23:45.922Z,994.41
2023-05-21T02:24:17.593Z,994.41
2023-05-21T02:24:38.964Z,994.31
2023-05-21T02:25:07.132Z,994.31
2023-05-21T02:25:37.917Z,994.31
2023-05-21T02:26:09.377Z,994.41
2023-05-21T02:26:37.495Z,994.41
2023-05-21T02:26:57.574Z,994.41
2023-05-21T02:27:29.360Z,994.41
2023-05-21T02:27:45.891Z,994.21
2023-05-21T02:28:17.538Z,994.21
2023-05-21T02:28:39.658Z,994.31
2023-05-21T02:29:06.221Z,994.31
2023-05-21T02:29:37.873Z,994.31
2023-05-21T02:30:10.406Z,994.31
2023-05-21T02:30:37.297Z,994.41
2023-05-21T02:30:58.101Z,994.41
2023-05-21T02:31:29.391Z,994.41
2023-05-21T02:31:45.893Z,994.31
2023-05-21T02:32:17.538Z,994.31
2023-05-21T02:32:39.179Z,994.51
2023-05-21T02:33:06.174Z,994.51
2023-05-21T02:33:37.624Z,994.51
2023-05-21T02:34:09.583Z,994.41
2023-05-21T02:34:37.235Z,994.31
2023-05-21T02:34:57.647Z,994.31
2023-05-21T02:35:29.819Z,994.31
2023-05-21T02:35:45.924Z,994.31
2023-05-21T02:36:17.637Z,994.31
2023-05-21T02:36:38.999Z,994.31
2023-05-21T02:37:06.253Z,994.31
2023-05-21T02:37:37.524Z,994.31
2023-05-21T02:38:09.594Z,994.31
2023-05-21T02:38:37.477Z,994.31
2023-05-21T02:38:58.264Z,994.31
2023-05-21T02:39:29.300Z,994.31
2023-05-21T02:39:45.914Z,994.21
2023-05-21T02:40:18.010Z,994.21
2023-05-21T02:40:39.071Z,994.31
2023-05-21T02:41:06.230Z,994.31
2023-05-21T02:41:37.458Z,994.31
2023-05-21T02:42:09.387Z,994.21
2023-05-21T02:42:37.305Z,994.31
2023-05-21T02:42:57.657Z,994.31
2023-05-21T02:43:29.342Z,994.31
2023-05-21T02:43:46.186Z,994.21
2023-05-21T02:44:17.609Z,994.21
2023-05-21T02:44:39.076Z,994.31
2023-05-21T02:45:07.628Z,994.31
2023-05-21T02:45:38.040Z,994.31
2023-05-21T02:46:09.569Z,994.31
2023-05-21T02:46:37.388Z,994.31
2023-05-21T02:46:57.413Z,994.31
2023-05-21T02:47:29.377Z,994.31
2023-05-21T02:47:46.022Z,994.21
2023-05-21T02:48:17.547Z,994.21
2023-05-21T02:48:39.070Z,994.21
2023-05-21T02:49:06.105Z,994.21
2023-05-21T02:49:37.554Z,994.21
2023-05-21T02:50:09.879Z,994.21
2023-05-21T02:50:37.698Z,994.31
2023-05-21T02:50:58.191Z,994.31
2023-05-21T02:51:29.375Z,994.31
2023-05-21T02:51:45.954Z,994.21
2023-05-21T02:52:17.650Z,994.21
2023-05-21T02:52:38.986Z,994.21
2023-05-21T02:53:06.287Z,994.21
2023-05-21T02:53:37.629Z,994.21
2023-05-21T02:54:09.429Z,994.41
2023-05-21T02:54:37.195Z,994.41
2023-05-21T02:54:57.629Z,994.41
2023-05-21T02:55:29.793Z,994.41
2023-05-21T02:55:46.029Z,994.21
2023-05-21T02:56:17.576Z,994.21
2023-05-21T02:56:39.268Z,994.31
2023-05-21T02:57:06.747Z,994.31
2023-05-21T02:57:37.640Z,994.31
2023-05-21T02:58:09.444Z,994.31
2023-05-21T02:58:37.275Z,994.31
2023-05-21T02:58:57.648Z,994.31
2023-05-21T02:59:29.422Z,994.31
2023-05-21T02:59:46.292Z,994.41
2023-05-21T03:00:18.451Z,994.41
2023-05-21T03:00:39.219Z,994.31
2023-05-21T03:01:06.825Z,994.31
2023-05-21T03:01:37.468Z,994.31
2023-05-21T03:02:09.730Z,994.21
2023-05-21T03:02:37.448Z,994.14
2023-05-21T03:02:57.683Z,994.14
2023-05-21T03:03:29.508Z,994.14
2023-05-21T03:03:46.237Z,994.14
2023-05-21T03:04:17.507Z,994.14
2023-05-21T03:04:39.054Z,994.31
2023-05-21T03:05:07.205Z,994.31
2023-05-21T03:05:38.159Z,994.31
2023-05-21T03:06:09.404Z,994.14
2023-05-21T03:06:37.462Z,994.41
2023-05-21T03:06:57.425Z,994.41
2023-05-21T03:07:29.325Z,994.41
2023-05-21T03:07:45.929Z,994.31
2023-05-21T03:08:17.524Z,994.31
2023-05-21T03:08:39.078Z,994.31
2023-05-21T03:09:06.267Z,994.31
2023-05-21T03:09:37.615Z,994.31
2023-05-21T03:10:10.212Z,994.04
2023-05-21T03:10:37.345Z,994.21
2023-05-21T03:10:57.829Z,994.21
2023-05-21T03:11:29.542Z,994.21
2023-05-21T03:11:46.044Z,994.14
2023-05-21T03:12:17.572Z,994.14
2023-05-21T03:12:39.106Z,994.21
2023-05-21T03:13:08.974Z,994.21
2023-05-21T03:13:37.521Z,994.21
2023-05-21T03:14:09.691Z,994.31
2023-05-21T03:14:37.193Z,994.21
2023-05-21T03:14:57.685Z,994.21
2023-05-21T03:15:30.354Z,994.21
2023-05-21T03:15:46.238Z,994.41
2023-05-21T03:16:18.011Z,994.41
2023-05-21T03:16:39.152Z,994.31
2023-05-21T03:17:06.605Z,994.31
2023-05-21T03:17:37.664Z,994.31
2023-05-21T03:18:09.446Z,994.21
2023-05-21T03:18:37.446Z,994.21
2023-05-21T03:18:57.867Z,994.21
2023-05-21T03:19:29.660Z,994.21
2023-05-21T03:19:46.228Z,994.04
2023-05-21T03:20:18.574Z,994.04
2023-05-21T03:20:39.301Z,994.41
2023-05-21T03:21:07.164Z,994.41
2023-05-21T03:21:37.764Z,994.41
2023-05-21T03:22:09.617Z,994.31
2023-05-21T03:22:37.396Z,994.31
2023-05-21T03:22:57.865Z,994.31
2023-05-21T03:23:29.364Z,994.31
2023-05-21T03:23:46.371Z,994.21
2023-05-21T03:24:17.804Z,994.21
2023-05-21T03:24:39.341Z,994.21
2023-05-21T03:25:07.395Z,994.21
2023-05-21T03:25:37.882Z,994.21
2023-05-21T03:26:09.613Z,994.21
2023-05-21T03:26:37.461Z,994.14
2023-05-21T03:26:57.633Z,994.14
2023-05-21T03:27:29.555Z,994.14
2023-05-21T03:27:46.504Z,994.21
2023-05-21T03:28:17.798Z,994.21
2023-05-21T03:28:39.333Z,994.21
2023-05-21T03:29:07.680Z,994.21
2023-05-21T03:29:37.892Z,994.21
2023-05-21T03:30:10.790Z,994.31
2023-05-21T03:30:37.621Z,994.21
2023-05-21T03:30:58.602Z,994.21
2023-05-21T03:31:29.741Z,994.21
2023-05-21T03:31:46.127Z,994.41
2023-05-21T03:32:17.868Z,994.41
2023-05-21T03:32:39.452Z,994.31
2023-05-21T03:33:06.429Z,994.31
2023-05-21T03:33:37.917Z,994.31
2023-05-21T03:34:09.621Z,994.41
2023-05-21T03:34:37.852Z,994.21
2023-05-21T03:34:57.729Z,994.21
2023-05-21T03:35:30.133Z,994.21
2023-05-21T03:35:46.284Z,994.21
2023-05-21T03:36:17.919Z,994.21
2023-05-21T03:36:39.349Z,994.21
2023-05-21T03:37:06.371Z,994.21
2023-05-21T03:37:37.935Z,994.21
2023-05-21T03:38:09.610Z,994.51
2023-05-21T03:38:37.667Z,994.21
2023-05-21T03:38:57.697Z,994.21
2023-05-21T03:39:29.563Z,994.21
2023-05-21T03:39:46.394Z,994.41
2023-05-21T03:40:18.209Z,994.41
2023-05-21T03:40:39.119Z,994.31
2023-05-21T03:41:06.346Z,994.31
2023-05-21T03:41:37.922Z,994.31
2023-05-21T03:42:09.596Z,994.31
2023-05-21T03:42:37.499Z,994.21
2023-05-21T03:42:57.867Z,994.21
2023-05-21T03:43:30.432Z,994.21
2023-05-21T03:43:46.165Z,994.41
2023-05-21T03:44:17.774Z,994.41
2023-05-21T03:44:39.175Z,994.51
2023-05-21T03:45:07.856Z,994.51
2023-05-21T03:45:38.196Z,994.51
2023-05-21T03:46:09.674Z,994.31
2023-05-21T03:46:37.554Z,994.31
2023-05-21T03:46:57.849Z,994.31
2023-05-21T03:47:29.633Z,994.31
2023-05-21T03:47:46.238Z,994.51
2023-05-21T03:48:17.961Z,994.51
2023-05-21T03:48:39.391Z,994.41
2023-05-21T03:49:06.499Z,994.41
2023-05-21T03:49:38.016Z,994.41
2023-05-21T03:50:10.331Z,994.21
2023-05-21T03:50:37.592Z,994.41
2023-05-21T03:50:58.507Z,994.41
2023-05-21T03:51:29.583Z,994.41
2023-05-21T03:51:46.817Z,994.41
2023-05-21T03:52:17.835Z,994.41
2023-05-21T03:52:39.397Z,994.61
2023-05-21T03:53:06.315Z,994.61
2023-05-21T03:53:37.915Z,994.61
2023-05-21T03:54:09.669Z,994.61
2023-05-21T03:54:37.415Z,994.41
2023-05-21T03:54:57.902Z,994.41
2023-05-21T03:55:30.045Z,994.41
2023-05-21T03:55:46.127Z,994.31
2023-05-21T03:56:18.131Z,994.31
2023-05-21T03:56:39.442Z,994.41
2023-05-21T03:57:06.414Z,994.41
2023-05-21T03:57:38.196Z,994.41
2023-05-21T03:58:09.675Z,994.31
2023-05-21T03:58:37.912Z,994.72
2023-05-21T03:58:57.848Z,994.72
2023-05-21T03:59:29.648Z,994.72
2023-05-21T03:59:46.137Z,994.41
2023-05-21T04:00:18.782Z,994.41
2023-05-21T04:00:39.684Z,994.41
2023-05-21T04:01:07.145Z,994.41
2023-05-21T04:01:38.235Z,994.41
2023-05-21T04:02:09.928Z,994.21
2023-05-21T04:02:37.882Z,994.41
2023-05-21T04:02:57.871Z,994.41
2023-05-21T04:03:29.837Z,994.41
2023-05-21T04:03:46.283Z,994.51
2023-05-21T04:04:17.880Z,994.51
2023-05-21T04:04:39.670Z,994.31
2023-05-21T04:05:07.194Z,994.31
2023-05-21T04:05:38.090Z,994.31
2023-05-21T04:06:09.697Z,994.61
2023-05-21T04:06:37.455Z,994.72
2023-05-21T04:06:57.844Z,994.72
2023-05-21T04:07:29.672Z,994.72
2023-05-21T04:07:46.367Z,994.21
2023-05-21T04:08:17.888Z,994.21
2023-05-21T04:08:39.204Z,994.31
2023-05-21T04:09:06.386Z,994.31
2023-05-21T04:09:37.806Z,994.31
2023-05-21T04:10:10.093Z,994.21
2023-05-21T04:10:37.465Z,994.51
2023-05-21T04:10:58.329Z,994.51
2023-05-21T04:11:29.818Z,994.51
2023-05-21T04:11:46.268Z,994.72
2023-05-21T04:12:17.751Z,994.72
2023-05-21T04:12:39.264Z,994.41
2023-05-21T04:13:06.380Z,994.41
2023-05-21T04:13:38.039Z,994.41
2023-05-21T04:14:09.689Z,994.51
2023-05-21T04:14:37.449Z,994.72
2023-05-21T04:14:57.801Z,994.72
2023-05-21T04:15:30.664Z,994.72
2023-05-21T04:15:46.389Z,994.31
2023-05-21T04:16:17.927Z,994.31
2023-05-21T04:16:39.409Z,994.41
2023-05-21T04:17:06.382Z,994.41
2023-05-21T04:17:38.073Z,994.41
2023-05-21T04:18:09.876Z,994.41
2023-05-21T04:18:37.535Z,994.61
2023-05-21T04:18:57.863Z,994.61
2023-05-21T04:19:29.843Z,994.61
2023-05-21T04:19:46.663Z,994.61
2023-05-21T04:20:18.138Z,994.61
2023-05-21T04:20:39.309Z,994.51
2023-05-21T04:21:06.458Z,994.51
2023-05-21T04:21:37.908Z,994.51
2023-05-21T04:22:09.614Z,994.21
2023-05-21T04:22:26.213Z,994.21
2023-05-21T04:22:58.118Z,994.41
2023-05-21T04:23:29.766Z,994.41
2023-05-21T04:23:46.106Z,994.41
2023-05-21T04:24:17.777Z,994.41
2023-05-21T04:24:39.317Z,994.51
2023-05-21T04:25:07.309Z,994.51
2023-05-21T04:25:38.275Z,994.51
2023-05-21T04:26:09.708Z,994.51
2023-05-21T04:26:26.159Z,994.51
2023-05-21T04:26:57.812Z,994.51
2023-05-21T04:27:29.639Z,994.51
2023-05-21T04:27:46.300Z,994.82
2023-05-21T04:28:17.896Z,994.82
2023-05-21T04:28:39.229Z,994.72
2023-05-21T04:29:06.406Z,994.72
2023-05-21T04:29:39.387Z,994.72
2023-05-21T04:30:10.796Z,994.61
2023-05-21T04:30:26.356Z,994.61
2023-05-21T04:30:58.254Z,994.31
2023-05-21T04:31:29.663Z,994.31
2023-05-21T04:31:46.551Z,994.61
2023-05-21T04:32:17.783Z,994.61
2023-05-21T04:32:39.255Z,994.31
2023-05-21T04:33:06.662Z,994.31
2023-05-21T04:33:37.854Z,994.31
2023-05-21T04:34:09.550Z,994.51
2023-05-21T04:34:26.258Z,994.51
2023-05-21T04:34:57.774Z,994.61
2023-05-21T04:35:30.325Z,994.61
2023-05-21T04:35:46.172Z,994.51
2023-05-21T04:36:17.817Z,994.51
2023-05-21T04:36:39.346Z,994.41
2023-05-21T04:37:06.541Z,994.41
2023-05-21T04:37:37.863Z,994.41
2023-05-21T04:38:09.565Z,994.41
2023-05-21T04:38:26.322Z,994.41
2023-05-21T04:38:57.974Z,994.41
2023-05-21T04:39:29.600Z,994.41
2023-05-21T04:39:46.071Z,994.61
2023-05-21T04:40:18.343Z,994.61
2023-05-21T04:40:39.339Z,994.72
2023-05-21T04:41:06.499Z,994.72
2023-05-21T04:41:37.918Z,994.72
2023-05-21T04:42:09.603Z,994.41
2023-05-21T04:42:26.241Z,994.41
2023-05-21T04:42:58.313Z,994.41
2023-05-21T04:43:29.641Z,994.41
2023-05-21T04:43:46.471Z,994.51
2023-05-21T04:44:17.731Z,994.51
2023-05-21T04:44:39.304Z,994.51
2023-05-21T04:45:07.813Z,994.51
2023-05-21T04:45:37.979Z,994.51
2023-05-21T04:46:09.710Z,994.51
2023-05-21T04:46:26.392Z,994.51
2023-05-21T04:46:57.835Z,994.51
2023-05-21T04:47:29.843Z,994.51
2023-05-21T04:47:46.272Z,994.51
2023-05-21T04:48:17.790Z,994.51
2023-05-21T04:48:39.217Z,994.41
2023-05-21T04:49:06.385Z,994.41
2023-05-21T04:49:37.764Z,994.41
2023-05-21T04:50:10.181Z,994.41
2023-05-21T04:50:26.085Z,994.41
2023-05-21T04:50:58.287Z,994.51
2023-05-21T04:51:29.613Z,994.51
2023-05-21T04:51:46.111Z,994.41
2023-05-21T04:52:17.810Z,994.41
2023-05-21T04:52:39.264Z,994.51
2023-05-21T04:53:06.460Z,994.51
2023-05-21T04:53:37.749Z,994.51
2023-05-21T04:54:09.991Z,994.41
2023-05-21T04:54:37.564Z,994.31
2023-05-21T04:54:57.696Z,994.31
2023-05-21T04:55:30.135Z,994.31
2023-05-21T04:55:46.211Z,994.51
2023-05-21T04:56:17.972Z,994.51
2023-05-21T04:56:39.307Z,994.31
2023-05-21T04:57:06.463Z,994.31
2023-05-21T04:57:37.786Z,994.31
2023-05-21T04:58:09.631Z,994.61
2023-05-21T04:58:26.571Z,994.61
2023-05-21T04:58:57.763Z,994.51
2023-05-21T04:59:29.807Z,994.51
2023-05-21T04:59:46.113Z,994.51
2023-05-21T05:00:18.925Z,994.51
2023-05-21T05:00:39.317Z,994.51
2023-05-21T05:01:07.618Z,994.51
2023-05-21T05:01:37.771Z,994.51
2023-05-21T05:02:09.574Z,994.61
2023-05-21T05:02:26.206Z,994.61
2023-05-21T05:02:57.832Z,994.51
2023-05-21T05:03:29.829Z,994.51
2023-05-21T05:03:46.146Z,994.61
2023-05-21T05:04:17.840Z,994.61
2023-05-21T05:04:39.294Z,994.61
2023-05-21T05:05:07.946Z,994.61
2023-05-21T05:05:38.413Z,994.61
2023-05-21T05:06:09.983Z,994.41
2023-05-21T05:06:26.225Z,994.41
2023-05-21T05:06:57.582Z,994.61
2023-05-21T05:07:29.617Z,994.61
2023-05-21T05:07:46.379Z,994.31
2023-05-21T05:08:17.883Z,994.31
2023-05-21T05:08:39.236Z,994.61
2023-05-21T05:09:06.378Z,994.61
2023-05-21T05:09:37.846Z,994.61
2023-05-21T05:10:10.345Z,994.61
2023-05-21T05:10:26.310Z,994.61
2023-05-21T05:10:57.998Z,994.61
2023-05-21T05:11:29.575Z,994.61
2023-05-21T05:11:46.081Z,994.51
2023-05-21T05:12:17.723Z,994.51
2023-05-21T05:12:39.406Z,994.61
2023-05-21T05:13:06.471Z,994.61
2023-05-21T05:13:37.820Z,994.61
2023-05-21T05:14:09.640Z,994.72
2023-05-21T05:14:26.229Z,994.72
2023-05-21T05:14:58.209Z,994.72
2023-05-21T05:15:30.555Z,994.72
2023-05-21T05:15:48.115Z,994.61
2023-05-21T05:16:18.008Z,994.61
2023-05-21T05:16:39.378Z,994.72
2023-05-21T05:17:06.391Z,994.72
2023-05-21T05:17:37.793Z,994.72
2023-05-21T05:18:09.678Z,994.41
2023-05-21T05:18:26.328Z,994.41
2023-05-21T05:18:57.887Z,994.41
2023-05-21T05:19:29.733Z,994.41
2023-05-21T05:19:46.293Z,994.41
2023-05-21T05:20:18.553Z,994.41
2023-05-21T05:20:39.574Z,994.51
2023-05-21T05:21:06.584Z,994.51
2023-05-21T05:21:38.122Z,994.51
2023-05-21T05:22:11.766Z,994.51
2023-05-21T05:22:37.665Z,994.51
2023-05-21T05:22:58.601Z,994.51
2023-05-21T05:23:29.913Z,994.51
2023-05-21T05:23:46.449Z,994.41
2023-05-21T05:24:18.319Z,994.41
2023-05-21T05:24:39.853Z,994.41
2023-05-21T05:25:07.465Z,994.41
2023-05-21T05:25:38.316Z,994.41
2023-05-21T05:26:09.860Z,994.41
2023-05-21T05:26:26.575Z,994.41
2023-05-21T05:26:57.853Z,994.41
2023-05-21T05:27:29.837Z,994.41
2023-05-21T05:27:46.317Z,994.41
2023-05-21T05:28:17.938Z,994.41
2023-05-21T05:28:39.579Z,994.41
2023-05-21T05:29:06.640Z,994.41
2023-05-21T05:29:37.984Z,994.41
2023-05-21T05:30:11.424Z,994.41
2023-05-21T05:30:27.795Z,994.41
2023-05-21T05:30:58.475Z,994.41
2023-05-21T05:31:29.887Z,994.41
2023-05-21T05:31:46.293Z,994.51
2023-05-21T05:32:18.169Z,994.51
2023-05-21T05:32:39.655Z,994.31